createdAt,value
2022-10-24T00:01:44.894Z,11.88
2022-10-24T00:04:13.357Z,11.93
2022-10-24T00:06:42.257Z,11.96
2022-10-24T00:09:10.468Z,11.96
2022-10-24T00:11:39.274Z,11.95
2022-10-24T00:14:07.606Z,11.91
2022-10-24T00:16:35.871Z,11.80
2022-10-24T00:19:06.349Z,11.75
2022-10-24T00:21:34.389Z,11.78
2022-10-24T00:24:02.759Z,11.81
2022-10-24T00:26:31.326Z,11.84
2022-10-24T00:31:33.243Z,11.64
2022-10-24T00:34:02.257Z,11.61
2022-10-24T00:36:32.598Z,11.63
2022-10-24T00:39:01.636Z,11.67
2022-10-24T00:41:31.952Z,11.74
2022-10-24T00:44:18.852Z,11.65
2022-10-24T00:46:49.735Z,11.69
2022-10-24T00:49:22.838Z,11.71
2022-10-24T00:51:57.191Z,11.73
2022-10-24T00:54:25.907Z,11.59
2022-10-24T00:57:06.298Z,11.63
2022-10-24T00:59:36.766Z,11.65
2022-10-24T01:02:05.221Z,11.69
2022-10-24T01:04:33.326Z,11.51
2022-10-24T01:07:17.474Z,11.46
2022-10-24T01:10:18.774Z,11.60
2022-10-24T01:12:56.094Z,11.56
2022-10-24T01:15:33.116Z,11.53
2022-10-24T01:18:08.319Z,11.48
2022-10-24T01:20:49.040Z,11.50
2022-10-24T01:23:50.338Z,11.55
2022-10-24T01:26:37.748Z,11.69
2022-10-24T01:29:15.939Z,11.66
2022-10-24T01:31:50.849Z,11.60
2022-10-24T01:34:27.847Z,11.62
2022-10-24T01:37:03.386Z,11.65
2022-10-24T01:39:36.112Z,11.66
2022-10-24T01:42:07.024Z,11.63
2022-10-24T01:44:40.008Z,11.67
2022-10-24T01:47:14.372Z,11.61
2022-10-24T01:49:46.631Z,11.71
2022-10-24T01:52:17.279Z,11.63
2022-10-24T01:54:48.303Z,11.60
2022-10-24T01:57:16.504Z,11.54
2022-10-24T01:59:48.160Z,11.62
2022-10-24T02:02:23.116Z,11.58
2022-10-24T02:04:56.152Z,11.58
2022-10-24T02:07:26.930Z,11.59
2022-10-24T02:10:02.167Z,11.61
2022-10-24T02:12:31.492Z,11.53
2022-10-24T02:15:04.511Z,11.53
2022-10-24T02:17:34.524Z,11.50
2022-10-24T02:20:03.838Z,11.50
2022-10-24T02:22:41.192Z,11.45
2022-10-24T02:25:13.399Z,11.48
2022-10-24T02:27:50.713Z,11.56
2022-10-24T02:30:22.262Z,11.46
2022-10-24T02:32:55.159Z,11.44
2022-10-24T02:35:27.469Z,11.49
2022-10-24T02:38:00.568Z,11.45
2022-10-24T02:40:28.814Z,11.47
2022-10-24T02:42:59.624Z,11.51
2022-10-24T02:45:29.201Z,11.51
2022-10-24T02:48:03.787Z,11.52
2022-10-24T02:50:33.701Z,11.55
2022-10-24T02:53:01.961Z,11.42
2022-10-24T02:55:30.405Z,11.48
2022-10-24T02:57:58.696Z,11.47
2022-10-24T03:00:26.948Z,11.36
2022-10-24T03:02:55.152Z,11.42
2022-10-24T03:05:24.939Z,11.36
2022-10-24T03:07:52.971Z,11.36
2022-10-24T03:10:21.326Z,11.31
2022-10-24T03:12:49.752Z,11.31
2022-10-24T03:15:17.975Z,11.44
2022-10-24T03:17:49.163Z,11.52
2022-10-24T03:20:17.704Z,11.55
2022-10-24T03:22:47.489Z,11.46
2022-10-24T03:25:15.500Z,11.44
2022-10-24T03:27:44.164Z,11.38
2022-10-24T03:30:13.739Z,11.47
2022-10-24T03:32:42.351Z,11.39
2022-10-24T03:35:14.161Z,11.37
2022-10-24T03:37:42.770Z,11.42
2022-10-24T03:40:13.242Z,11.36
2022-10-24T03:42:43.765Z,11.33
2022-10-24T03:45:12.513Z,11.39
2022-10-24T03:47:41.234Z,11.26
2022-10-24T03:50:10.151Z,11.39
2022-10-24T03:52:38.672Z,11.35
2022-10-24T03:55:08.019Z,11.34
2022-10-24T03:57:37.758Z,11.40
2022-10-24T04:00:06.860Z,11.46
2022-10-24T04:02:37.065Z,11.44
2022-10-24T04:05:08.599Z,11.47
2022-10-24T04:07:37.108Z,11.46
2022-10-24T04:10:05.462Z,11.50
2022-10-24T04:12:34.279Z,11.50
2022-10-24T04:15:05.083Z,11.51
2022-10-24T04:17:33.965Z,11.60
2022-10-24T04:20:02.394Z,11.48
2022-10-24T04:22:30.825Z,11.56
2022-10-24T04:24:58.976Z,11.59
2022-10-24T04:27:27.405Z,11.62
2022-10-24T04:29:55.679Z,11.63
2022-10-24T04:32:25.210Z,11.61
2022-10-24T04:34:53.337Z,11.60
2022-10-24T04:37:21.861Z,11.65
2022-10-24T04:39:50.072Z,11.65
2022-10-24T04:42:18.259Z,11.58
2022-10-24T04:44:46.661Z,11.69
2022-10-24T04:47:15.431Z,11.65
2022-10-24T04:49:45.119Z,11.66
2022-10-24T04:52:13.370Z,11.58
2022-10-24T04:54:41.729Z,11.67
2022-10-24T04:57:09.990Z,11.49
2022-10-24T04:59:38.306Z,11.41
2022-10-24T05:02:06.593Z,11.50
2022-10-24T05:04:34.903Z,11.41
2022-10-24T05:07:04.693Z,11.44
2022-10-24T05:09:32.933Z,11.50
2022-10-24T05:12:02.246Z,11.51
2022-10-24T05:14:30.805Z,11.46
2022-10-24T05:16:59.169Z,11.48
2022-10-24T05:19:27.380Z,11.46
2022-10-24T05:21:55.677Z,11.53
2022-10-24T05:24:25.784Z,11.55
2022-10-24T05:26:54.073Z,11.61
2022-10-24T05:29:22.404Z,11.50
2022-10-24T05:31:50.481Z,11.46
2022-10-24T05:34:18.622Z,11.45
2022-10-24T05:36:46.940Z,11.47
2022-10-24T05:39:14.959Z,11.41
2022-10-24T05:41:46.972Z,11.44
2022-10-24T05:44:16.347Z,11.45
2022-10-24T05:46:45.247Z,11.44
2022-10-24T05:49:14.958Z,11.58
2022-10-24T05:51:43.192Z,11.60
2022-10-24T05:56:39.936Z,11.54
2022-10-24T05:59:10.334Z,11.55
2022-10-24T06:01:38.931Z,11.52
2022-10-24T06:04:10.002Z,11.53
2022-10-24T06:06:41.768Z,11.56
2022-10-24T06:09:10.080Z,11.53
2022-10-24T06:11:38.387Z,11.56
2022-10-24T06:14:07.192Z,11.62
2022-10-24T06:16:36.718Z,11.63
2022-10-24T06:19:04.993Z,11.63
2022-10-24T06:21:33.403Z,11.63
2022-10-24T06:24:01.507Z,11.69
2022-10-24T06:26:29.617Z,11.65
2022-10-24T06:28:58.007Z,11.57
2022-10-24T06:31:26.883Z,11.52
2022-10-24T06:33:56.834Z,11.61
2022-10-24T06:36:26.949Z,11.58
2022-10-24T06:38:58.586Z,11.67
2022-10-24T06:41:26.824Z,11.61
2022-10-24T06:43:56.605Z,11.59
2022-10-24T06:46:25.236Z,11.73
2022-10-24T06:48:56.867Z,11.62
2022-10-24T06:51:26.080Z,11.72
2022-10-24T06:53:55.094Z,11.61
2022-10-24T06:56:23.349Z,11.65
2022-10-24T06:58:51.447Z,11.65
2022-10-24T07:01:21.711Z,11.69
2022-10-24T07:03:50.234Z,11.59
2022-10-24T07:08:53.015Z,11.64
2022-10-24T07:11:21.217Z,11.63
2022-10-24T07:13:49.998Z,11.66
2022-10-24T07:16:19.119Z,11.79
2022-10-24T07:18:48.253Z,11.64
2022-10-24T07:21:19.880Z,11.63
2022-10-24T07:23:49.649Z,11.60
2022-10-24T07:26:17.847Z,11.57
2022-10-24T07:28:47.846Z,11.60
2022-10-24T07:31:19.668Z,11.54
2022-10-24T07:33:47.975Z,11.58
2022-10-24T07:36:19.139Z,11.53
2022-10-24T07:38:47.675Z,11.68
2022-10-24T07:41:17.333Z,11.57
2022-10-24T07:43:46.451Z,11.62
2022-10-24T07:46:17.037Z,11.64
2022-10-24T07:48:45.553Z,11.60
2022-10-24T07:51:15.388Z,11.59
2022-10-24T07:53:44.061Z,11.65
2022-10-24T07:56:14.651Z,11.80
2022-10-24T07:58:45.486Z,11.72
2022-10-24T08:01:15.631Z,11.81
2022-10-24T08:03:43.875Z,11.80
2022-10-24T08:06:15.129Z,11.90
2022-10-24T08:08:43.403Z,11.92
2022-10-24T08:11:14.507Z,11.83
2022-10-24T08:13:44.606Z,11.90
2022-10-24T08:16:14.892Z,11.89
2022-10-24T08:18:43.389Z,11.96
2022-10-24T08:21:14.595Z,11.95
2022-10-24T08:23:45.250Z,11.93
2022-10-24T08:26:15.699Z,11.98
2022-10-24T08:28:46.442Z,12.03
2022-10-24T08:31:17.072Z,12.05
2022-10-24T08:33:46.018Z,12.04
2022-10-24T08:36:19.146Z,12.04
2022-10-24T08:38:47.290Z,12.13
2022-10-24T08:41:23.645Z,12.05
2022-10-24T08:43:54.033Z,12.12
2022-10-24T08:46:40.437Z,12.16
2022-10-24T08:49:16.970Z,12.21
2022-10-24T08:51:48.929Z,12.23
2022-10-24T08:54:23.352Z,12.22
2022-10-24T08:56:53.341Z,12.27
2022-10-24T08:59:23.078Z,12.32
2022-10-24T09:02:00.577Z,12.29
2022-10-24T09:04:41.474Z,12.30
2022-10-24T09:07:19.262Z,12.25
2022-10-24T09:09:51.350Z,12.33
2022-10-24T09:12:21.852Z,12.39
2022-10-24T09:14:57.148Z,12.38
2022-10-24T09:17:30.764Z,12.36
2022-10-24T09:20:01.557Z,12.48
2022-10-24T09:22:31.717Z,12.41
2022-10-24T09:25:03.472Z,12.42
2022-10-24T09:27:35.826Z,12.48
2022-10-24T09:30:07.358Z,12.40
2022-10-24T09:32:37.622Z,12.46
2022-10-24T09:35:07.705Z,12.42
2022-10-24T09:37:44.241Z,12.42
2022-10-24T09:40:19.094Z,12.47
2022-10-24T09:42:55.931Z,12.47
2022-10-24T09:45:37.231Z,12.45
2022-10-24T09:48:16.234Z,12.52
2022-10-24T09:50:45.938Z,12.53
2022-10-24T09:53:28.786Z,12.49
2022-10-24T09:55:59.943Z,12.55
2022-10-24T09:58:32.939Z,12.54
2022-10-24T10:01:06.938Z,12.52
2022-10-24T10:03:36.611Z,12.61
2022-10-24T10:06:15.724Z,12.57
2022-10-24T10:08:51.605Z,12.60
2022-10-24T10:11:27.678Z,12.64
2022-10-24T10:13:56.269Z,12.69
2022-10-24T10:16:29.354Z,12.67
2022-10-24T10:19:04.010Z,12.67
2022-10-24T10:21:54.087Z,12.63
2022-10-24T10:24:27.515Z,12.70
2022-10-24T10:26:55.916Z,12.74
2022-10-24T10:29:25.382Z,12.80
2022-10-24T10:32:07.373Z,12.76
2022-10-24T10:34:40.242Z,12.81
2022-10-24T10:37:27.068Z,12.76
2022-10-24T10:40:15.926Z,12.74
2022-10-24T10:42:59.265Z,12.86
2022-10-24T10:45:36.615Z,12.86
2022-10-24T10:48:26.081Z,12.93
2022-10-24T10:51:02.287Z,12.97
2022-10-24T10:53:41.591Z,12.99
2022-10-24T10:56:23.731Z,12.98
2022-10-24T10:59:06.660Z,13.03
2022-10-24T11:01:50.033Z,13.16
2022-10-24T11:04:29.008Z,13.13
2022-10-24T11:07:06.378Z,13.17
2022-10-24T11:09:40.327Z,13.15
2022-10-24T11:12:14.417Z,13.21
2022-10-24T11:14:46.748Z,13.21
2022-10-24T11:17:20.326Z,13.24
2022-10-24T11:19:58.501Z,13.21
2022-10-24T11:22:30.911Z,13.26
2022-10-24T11:25:03.870Z,13.24
2022-10-24T11:27:40.152Z,13.26
2022-10-24T11:30:15.619Z,13.22
2022-10-24T11:32:49.254Z,13.21
2022-10-24T11:35:29.096Z,13.20
2022-10-24T11:38:03.782Z,13.17
2022-10-24T11:40:32.614Z,13.22
2022-10-24T11:43:12.003Z,13.17
2022-10-24T11:45:47.210Z,13.24
2022-10-24T11:48:20.641Z,13.29
2022-10-24T11:50:54.323Z,13.29
2022-10-24T11:53:45.917Z,13.33
2022-10-24T11:56:31.219Z,13.32
2022-10-24T11:59:02.768Z,13.36
2022-10-24T12:02:00.221Z,13.39
2022-10-24T12:05:00.377Z,13.43
2022-10-24T12:07:51.729Z,13.42
2022-10-24T12:10:33.925Z,13.42
2022-10-24T12:13:17.495Z,13.42
2022-10-24T12:15:55.016Z,13.16
2022-10-24T12:18:31.057Z,13.45
2022-10-24T12:21:04.570Z,13.47
2022-10-24T12:23:34.957Z,13.47
2022-10-24T12:26:05.541Z,13.45
2022-10-24T12:28:34.550Z,13.49
2022-10-24T12:31:23.830Z,13.46
2022-10-24T12:34:33.761Z,13.45
2022-10-24T12:37:12.332Z,13.51
2022-10-24T12:39:47.148Z,13.51
2022-10-24T12:42:18.596Z,13.55
2022-10-24T12:44:50.553Z,13.56
2022-10-24T12:47:32.371Z,13.61
2022-10-24T12:50:21.624Z,13.65
2022-10-24T12:53:04.841Z,13.62
2022-10-24T12:56:09.927Z,13.65
2022-10-24T12:58:42.980Z,13.66
2022-10-24T13:01:24.215Z,13.73
2022-10-24T13:07:41.869Z,13.68
2022-10-24T13:10:32.704Z,13.67
2022-10-24T13:13:23.374Z,13.69
2022-10-24T13:15:58.578Z,13.68
2022-10-24T13:18:41.808Z,13.72
2022-10-24T13:21:18.545Z,13.70
2022-10-24T13:23:50.385Z,13.75
2022-10-24T13:26:39.037Z,13.74
2022-10-24T13:29:14.189Z,13.75
2022-10-24T13:32:18.551Z,13.79
2022-10-24T13:34:56.722Z,13.83
2022-10-24T13:37:27.335Z,13.85
2022-10-24T13:40:01.660Z,13.88
2022-10-24T13:42:36.207Z,13.88
2022-10-24T13:45:20.850Z,13.92
2022-10-24T13:47:53.048Z,13.86
2022-10-24T13:50:24.894Z,13.94
2022-10-24T13:52:58.225Z,13.99
2022-10-24T13:55:29.783Z,14.01
2022-10-24T13:58:01.917Z,14.06
2022-10-24T14:00:34.338Z,14.10
2022-10-24T14:03:06.491Z,14.07
2022-10-24T14:05:39.031Z,14.07
2022-10-24T14:08:11.756Z,14.04
2022-10-24T14:10:40.146Z,14.16
2022-10-24T14:13:14.109Z,14.16
2022-10-24T14:15:50.166Z,14.11
2022-10-24T14:18:18.602Z,14.14
2022-10-24T14:20:53.768Z,14.13
2022-10-24T14:23:27.095Z,14.16
2022-10-24T14:25:58.324Z,14.16
2022-10-24T14:28:31.028Z,14.17
2022-10-24T14:31:02.819Z,14.20
2022-10-24T14:33:31.757Z,14.20
2022-10-24T14:36:03.309Z,14.21
2022-10-24T14:38:32.313Z,14.21
2022-10-24T14:41:08.945Z,14.25
2022-10-24T14:43:42.338Z,14.24
2022-10-24T14:46:34.861Z,14.22
2022-10-24T14:49:20.353Z,14.27
2022-10-24T14:51:50.219Z,14.26
2022-10-24T14:54:22.259Z,14.28
2022-10-24T14:56:52.557Z,14.25
2022-10-24T14:59:25.998Z,14.21
2022-10-24T15:01:58.862Z,14.22
2022-10-24T15:04:33.051Z,14.21
2022-10-24T15:07:14.325Z,14.22
2022-10-24T15:09:53.762Z,14.24
2022-10-24T15:12:28.083Z,14.26
2022-10-24T15:14:57.341Z,14.28
2022-10-24T15:17:32.805Z,14.28
2022-10-24T15:20:03.730Z,14.31
2022-10-24T15:22:35.127Z,14.29
2022-10-24T15:25:05.954Z,14.32
2022-10-24T15:27:42.675Z,14.33
2022-10-24T15:30:15.678Z,14.37
2022-10-24T15:32:45.717Z,14.37
2022-10-24T15:35:15.054Z,14.40
2022-10-24T15:37:55.064Z,14.42
2022-10-24T15:40:25.241Z,14.45
2022-10-24T15:42:53.876Z,14.48
2022-10-24T15:45:22.539Z,14.50
2022-10-24T15:47:54.214Z,14.51
2022-10-24T15:50:24.679Z,14.54
2022-10-24T15:52:56.151Z,14.57
2022-10-24T15:55:26.813Z,14.54
2022-10-24T15:57:57.151Z,14.57
2022-10-24T16:00:26.177Z,14.58
2022-10-24T16:03:00.950Z,14.55
2022-10-24T16:05:32.197Z,14.57
2022-10-24T16:08:00.452Z,14.60
2022-10-24T16:10:28.722Z,14.59
2022-10-24T16:12:57.135Z,14.61
2022-10-24T16:15:29.717Z,14.60
2022-10-24T16:17:59.698Z,14.58
2022-10-24T16:20:27.865Z,14.65
2022-10-24T16:22:56.392Z,14.64
2022-10-24T16:25:26.566Z,14.61
2022-10-24T16:27:54.954Z,14.62
2022-10-24T16:30:25.480Z,14.60
2022-10-24T16:32:53.879Z,14.65
2022-10-24T16:35:25.770Z,14.65
2022-10-24T16:37:54.706Z,14.67
2022-10-24T16:40:23.352Z,14.65
2022-10-24T16:42:52.612Z,14.66
2022-10-24T16:45:21.989Z,14.65
2022-10-24T16:47:51.095Z,14.66
2022-10-24T16:50:24.185Z,14.65
2022-10-24T16:52:54.883Z,14.65
2022-10-24T16:55:23.653Z,14.64
2022-10-24T16:57:52.298Z,14.66
2022-10-24T17:00:22.927Z,14.69
2022-10-24T17:02:54.132Z,14.67
2022-10-24T17:05:24.595Z,14.70
2022-10-24T17:07:54.578Z,14.65
2022-10-24T17:10:24.839Z,14.68
2022-10-24T17:12:54.082Z,14.66
2022-10-24T17:15:22.901Z,14.70
2022-10-24T17:17:52.055Z,14.67
2022-10-24T17:20:20.244Z,14.68
2022-10-24T17:22:48.964Z,14.67
2022-10-24T17:25:24.659Z,14.64
2022-10-24T17:27:53.647Z,14.67
2022-10-24T17:30:24.588Z,14.72
2022-10-24T17:32:53.523Z,14.69
2022-10-24T17:35:24.532Z,14.65
2022-10-24T17:38:09.239Z,14.61
2022-10-24T17:40:43.825Z,14.60
2022-10-24T17:43:19.182Z,14.62
2022-10-24T17:45:48.339Z,14.63
2022-10-24T17:48:17.464Z,14.64
2022-10-24T17:50:46.345Z,14.63
2022-10-24T17:53:15.548Z,14.61
2022-10-24T17:55:47.512Z,14.59
2022-10-24T17:58:18.096Z,14.56
2022-10-24T18:00:47.632Z,14.54
2022-10-24T18:03:16.020Z,14.57
2022-10-24T18:05:44.917Z,14.51
2022-10-24T18:08:16.539Z,14.47
2022-10-24T18:10:47.401Z,14.47
2022-10-24T18:13:16.195Z,14.46
2022-10-24T18:15:44.409Z,14.44
2022-10-24T18:18:13.295Z,14.46
2022-10-24T18:20:41.745Z,14.46
2022-10-24T18:23:10.159Z,14.47
2022-10-24T18:25:38.690Z,14.46
2022-10-24T18:28:08.898Z,14.46
2022-10-24T18:30:36.985Z,14.41
2022-10-24T18:33:05.888Z,14.40
2022-10-24T18:35:36.272Z,14.35
2022-10-24T18:38:04.703Z,14.29
2022-10-24T18:40:35.412Z,14.36
2022-10-24T18:43:05.942Z,14.35
2022-10-24T18:45:36.878Z,14.37
2022-10-24T18:48:05.642Z,14.39
2022-10-24T18:50:34.374Z,14.40
2022-10-24T18:53:05.998Z,14.39
2022-10-24T18:55:36.064Z,14.37
2022-10-24T18:58:05.184Z,14.42
2022-10-24T19:00:40.768Z,14.42
2022-10-24T19:03:18.241Z,14.44
2022-10-24T19:05:53.557Z,14.44
2022-10-24T19:08:24.813Z,14.44
2022-10-24T19:10:56.555Z,14.45
2022-10-24T19:13:26.113Z,14.43
2022-10-24T19:15:58.609Z,14.41
2022-10-24T19:18:28.579Z,14.47
2022-10-24T19:20:56.742Z,14.43
2022-10-24T19:23:25.035Z,14.42
2022-10-24T19:25:54.867Z,14.46
2022-10-24T19:28:23.718Z,14.48
2022-10-24T19:30:52.294Z,14.48
2022-10-24T19:33:25.112Z,14.48
2022-10-24T19:35:53.423Z,14.37
2022-10-24T19:38:21.655Z,14.45
2022-10-24T19:40:52.074Z,14.49
2022-10-24T19:43:21.051Z,14.53
2022-10-24T19:46:07.089Z,14.54
2022-10-24T19:48:38.702Z,14.53
2022-10-24T19:51:10.918Z,14.48
2022-10-24T19:53:40.537Z,14.56
2022-10-24T19:56:11.486Z,14.56
2022-10-24T19:58:41.481Z,14.58
2022-10-24T20:01:12.299Z,14.56
2022-10-24T20:03:43.204Z,14.54
2022-10-24T20:06:12.361Z,14.57
2022-10-24T20:08:41.367Z,14.54
2022-10-24T20:11:11.006Z,14.56
2022-10-24T20:13:39.209Z,14.55
2022-10-24T20:16:10.425Z,14.56
2022-10-24T20:21:17.825Z,14.54
2022-10-24T20:23:48.576Z,14.50
2022-10-24T20:26:19.644Z,14.47
2022-10-24T20:28:50.401Z,14.48
2022-10-24T20:31:21.738Z,14.41
2022-10-24T20:33:50.518Z,14.45
2022-10-24T20:36:21.977Z,14.46
2022-10-24T20:38:50.159Z,14.47
2022-10-24T20:41:18.320Z,14.48
2022-10-24T20:43:46.907Z,14.50
2022-10-24T20:46:15.256Z,14.50
2022-10-24T20:48:43.518Z,14.51
2022-10-24T20:51:13.933Z,14.53
2022-10-24T20:53:44.481Z,14.53
2022-10-24T20:56:14.654Z,14.50
2022-10-24T20:58:44.969Z,14.53
2022-10-24T21:01:14.928Z,14.53
2022-10-24T21:03:44.069Z,14.51
2022-10-24T21:06:18.570Z,14.46
2022-10-24T21:08:51.119Z,14.52
2022-10-24T21:11:25.186Z,14.50
2022-10-24T21:13:54.081Z,14.47
2022-10-24T21:16:22.468Z,14.52
2022-10-24T21:18:51.854Z,14.58
2022-10-24T21:21:21.062Z,14.51
2022-10-24T21:23:53.320Z,14.47
2022-10-24T21:26:21.834Z,14.48
2022-10-24T21:28:50.232Z,14.47
2022-10-24T21:31:20.343Z,14.39
2022-10-24T21:33:48.998Z,14.40
2022-10-24T21:36:19.290Z,14.30
2022-10-24T21:38:49.079Z,14.32
2022-10-24T21:41:19.851Z,14.29
2022-10-24T21:43:50.901Z,14.32
2022-10-24T21:46:20.989Z,14.31
2022-10-24T21:48:50.663Z,14.28
2022-10-24T21:51:22.347Z,14.23
2022-10-24T21:53:52.843Z,14.27
2022-10-24T21:56:24.508Z,14.23
2022-10-24T21:58:54.569Z,14.22
2022-10-24T22:01:26.813Z,14.16
2022-10-24T22:03:56.130Z,14.15
2022-10-24T22:06:24.800Z,14.17
2022-10-24T22:08:53.957Z,14.17
2022-10-24T22:11:25.347Z,14.10
2022-10-24T22:13:54.795Z,14.13
2022-10-24T22:16:26.177Z,14.08
2022-10-24T22:18:54.473Z,14.09
2022-10-24T22:21:26.455Z,14.02
2022-10-24T22:23:56.370Z,14.02
2022-10-24T22:26:26.314Z,14.09
2022-10-24T22:28:55.896Z,14.06
2022-10-24T22:31:25.603Z,14.03
2022-10-24T22:33:54.450Z,14.03
2022-10-24T22:36:33.703Z,14.04
2022-10-24T22:39:02.448Z,14.08
2022-10-24T22:41:32.888Z,14.05
2022-10-24T22:44:01.733Z,14.05
2022-10-24T22:46:48.011Z,14.03
2022-10-24T22:49:24.375Z,14.05
2022-10-24T22:51:53.191Z,14.11
2022-10-24T22:54:25.245Z,14.08
2022-10-24T22:56:55.742Z,14.15
2022-10-24T22:59:24.428Z,14.07
2022-10-24T23:02:01.417Z,14.06
2022-10-24T23:04:36.902Z,14.09
2022-10-24T23:07:15.960Z,14.14
2022-10-24T23:09:44.208Z,14.11
2022-10-24T23:12:17.040Z,14.17
2022-10-24T23:14:46.723Z,14.12
2022-10-24T23:17:23.175Z,14.09
2022-10-24T23:19:52.204Z,14.13
2022-10-24T23:22:24.662Z,14.10
2022-10-24T23:24:54.494Z,14.12
2022-10-24T23:27:33.091Z,14.14
2022-10-24T23:30:02.502Z,14.17
2022-10-24T23:32:32.610Z,14.14
2022-10-24T23:35:01.687Z,14.16
2022-10-24T23:37:35.607Z,14.16
2022-10-24T23:40:13.410Z,14.13
2022-10-24T23:42:44.327Z,14.14
2022-10-24T23:45:14.871Z,14.15
2022-10-24T23:47:54.614Z,14.14
2022-10-24T23:50:29.167Z,14.16
2022-10-24T23:53:20.989Z,14.18
2022-10-24T23:55:49.969Z,14.09
2022-10-24T23:58:19.810Z,14.11
